createdAt,value
2018-01-03T00:00:32.668Z,3.13
2018-01-03T00:02:59.916Z,1.77
2018-01-03T00:05:27.198Z,1.10
2018-01-03T00:07:54.436Z,1.87
2018-01-03T00:10:21.795Z,2.13
2018-01-03T00:12:49.044Z,2.43
2018-01-03T00:15:16.502Z,3.90
2018-01-03T00:17:43.966Z,2.43
2018-01-03T00:20:11.225Z,2.10
2018-01-03T00:22:38.479Z,2.47
2018-01-03T00:25:05.744Z,2.50
2018-01-03T00:27:33.175Z,2.00
2018-01-03T00:30:00.445Z,1.47
2018-01-03T00:32:27.695Z,1.40
2018-01-03T00:34:54.973Z,1.07
2018-01-03T00:37:22.221Z,1.40
2018-01-03T00:39:49.489Z,2.00
2018-01-03T00:42:16.736Z,2.23
2018-01-03T00:44:44.008Z,1.37
2018-01-03T00:47:11.251Z,1.60
2018-01-03T00:49:38.563Z,2.00
2018-01-03T00:52:05.822Z,1.33
2018-01-03T00:54:33.089Z,1.83
2018-01-03T00:57:00.335Z,1.43
2018-01-03T00:59:27.614Z,4.70
2018-01-03T01:01:54.856Z,1.67
2018-01-03T01:04:22.257Z,2.50
2018-01-03T01:06:49.818Z,2.57
2018-01-03T01:09:17.299Z,1.60
2018-01-03T01:11:44.559Z,2.07
2018-01-03T01:14:11.833Z,2.93
2018-01-03T01:16:39.077Z,1.53
2018-01-03T01:19:06.339Z,1.90
2018-01-03T01:21:33.679Z,2.10
2018-01-03T01:24:00.987Z,1.70
2018-01-03T01:26:28.388Z,3.03
2018-01-03T01:28:55.740Z,2.40
2018-01-03T01:31:22.992Z,2.23
2018-01-03T01:33:50.259Z,2.00
2018-01-03T01:36:17.516Z,1.93
2018-01-03T01:38:44.857Z,4.63
2018-01-03T01:41:12.209Z,2.53
2018-01-03T01:43:39.460Z,2.53
2018-01-03T01:46:06.758Z,2.53
2018-01-03T01:48:34.697Z,3.40
2018-01-03T01:51:01.962Z,1.70
2018-01-03T01:53:29.207Z,2.03
2018-01-03T01:55:56.481Z,1.30
2018-01-03T01:58:23.728Z,1.30
2018-01-03T02:00:50.996Z,1.50
2018-01-03T02:03:18.254Z,2.10
2018-01-03T02:05:45.525Z,3.00
2018-01-03T02:08:13.132Z,1.70
2018-01-03T02:10:40.400Z,2.63
2018-01-03T08:55:17.727Z,3.97
2018-01-03T08:57:44.975Z,4.03
2018-01-03T09:00:12.259Z,6.60
2018-01-03T09:02:39.576Z,6.33
2018-01-03T09:05:06.824Z,4.17
2018-01-03T09:07:34.095Z,6.77
2018-01-03T09:10:01.348Z,11.10
2018-01-03T09:12:28.638Z,6.33
2018-01-03T09:14:55.879Z,8.40
2018-01-03T09:17:23.132Z,13.70
2018-01-03T09:19:50.454Z,10.80
2018-01-03T09:22:17.700Z,6.20
2018-01-03T09:24:44.984Z,10.10
2018-01-03T09:27:12.246Z,8.93
2018-01-03T09:29:39.570Z,9.17
2018-01-03T09:32:06.840Z,7.33
2018-01-03T09:34:34.120Z,7.40
2018-01-03T09:37:01.370Z,6.90
2018-01-03T09:39:28.648Z,7.13
2018-01-03T09:42:01.640Z,6.53
2018-01-03T09:44:28.898Z,7.03
2018-01-03T09:46:56.135Z,4.27
2018-01-03T09:49:23.411Z,6.40
2018-01-03T09:51:50.687Z,3.97
2018-01-03T09:54:18.042Z,5.50
2018-01-03T09:56:45.323Z,10.67
2018-01-03T09:59:12.577Z,6.00
2018-01-03T10:01:39.824Z,2.70
2018-01-03T10:06:40.679Z,1.47
2018-01-03T10:09:08.009Z,1.73
2018-01-03T10:11:35.252Z,3.23
2018-01-03T10:14:02.540Z,0.70
2018-01-03T10:16:29.829Z,0.60
2018-01-03T10:18:57.126Z,1.23
2018-01-03T10:21:24.401Z,0.70
2018-01-03T10:23:51.736Z,0.63
2018-01-03T10:26:19.001Z,2.43
2018-01-03T10:28:46.285Z,0.80
2018-01-03T10:31:13.531Z,1.47
2018-01-03T10:33:40.781Z,6.63
2018-01-03T10:36:08.117Z,1.77
2018-01-03T10:38:35.459Z,2.50
2018-01-03T10:41:02.708Z,2.00
2018-01-03T10:43:29.957Z,4.83
2018-01-03T10:45:57.320Z,2.17
2018-01-03T10:48:24.586Z,1.80
2018-01-03T10:50:51.865Z,4.23
2018-01-03T10:53:19.141Z,3.80
2018-01-03T10:55:46.436Z,5.57
2018-01-03T10:58:13.715Z,9.80
2018-01-03T11:00:40.963Z,3.63
2018-01-03T11:03:08.300Z,7.17
2018-01-03T11:05:35.552Z,9.50
2018-01-03T11:08:02.828Z,6.57
2018-01-03T11:10:30.164Z,9.30
2018-01-03T11:12:57.422Z,6.63
2018-01-03T11:15:24.688Z,8.43
2018-01-03T11:17:52.023Z,9.00
2018-01-03T11:20:19.316Z,13.13
2018-01-03T11:22:46.636Z,7.20
2018-01-03T11:25:13.917Z,16.80
2018-01-03T11:27:41.164Z,9.57
2018-01-03T11:30:08.463Z,7.93
2018-01-03T11:32:35.712Z,11.40
2018-01-03T11:35:02.972Z,12.17
2018-01-03T11:37:30.252Z,11.63
2018-01-03T11:39:57.527Z,11.20
2018-01-03T11:42:24.783Z,14.10
2018-01-03T11:44:52.063Z,10.70
2018-01-03T11:47:19.315Z,11.00
2018-01-03T11:49:46.595Z,13.07
2018-01-03T11:52:13.853Z,6.60
2018-01-03T11:54:41.128Z,6.27
2018-01-03T11:57:08.391Z,5.20
2018-01-03T11:59:35.665Z,9.23
2018-01-03T12:02:02.912Z,8.27
2018-01-03T12:04:30.187Z,7.77
2018-01-03T12:06:57.436Z,7.33
2018-01-03T12:09:24.757Z,8.77
2018-01-03T12:11:52.007Z,8.60
2018-01-03T12:14:19.267Z,11.23
2018-01-03T12:16:46.540Z,10.33
2018-01-03T12:19:13.818Z,11.43
2018-01-03T12:21:41.133Z,8.33
2018-01-03T12:24:08.413Z,13.63
2018-01-03T12:26:35.668Z,10.13
2018-01-03T12:29:02.922Z,13.70
2018-01-03T12:31:30.207Z,10.93
2018-01-03T12:33:57.472Z,10.30
2018-01-03T12:36:24.748Z,10.43
2018-01-03T12:38:52.028Z,10.03
2018-01-03T12:41:19.370Z,9.50
2018-01-03T12:43:46.636Z,14.43
2018-01-03T12:46:13.897Z,23.90
2018-01-03T12:48:41.184Z,11.83
2018-01-03T12:51:08.440Z,13.23
2018-01-03T12:53:35.723Z,12.97
2018-01-03T12:56:03.001Z,9.47
2018-01-03T12:58:30.257Z,10.93
2018-01-03T13:00:57.533Z,14.30
2018-01-03T13:03:24.808Z,17.97
2018-01-03T13:05:52.104Z,15.40
2018-01-03T13:08:19.357Z,14.80
2018-01-03T13:10:46.603Z,9.30
2018-01-03T13:13:13.957Z,11.90
2018-01-03T13:15:41.221Z,21.87
2018-01-03T13:18:08.512Z,13.47
2018-01-03T13:20:35.767Z,8.70
2018-01-03T13:23:03.021Z,15.67
2018-01-03T13:25:30.301Z,10.27
2018-01-03T13:27:57.585Z,7.63
2018-01-03T13:30:24.832Z,20.17
2018-01-03T13:32:52.111Z,15.30
2018-01-03T13:35:19.380Z,10.57
2018-01-03T13:37:46.653Z,11.50
2018-01-03T13:40:13.924Z,11.13
2018-01-03T13:42:41.300Z,12.67
2018-01-03T13:45:08.548Z,9.30
2018-01-03T13:47:35.807Z,14.73
2018-01-03T13:50:03.227Z,15.10
2018-01-03T13:52:30.531Z,13.93
2018-01-03T13:54:57.787Z,10.70
2018-01-03T13:57:25.068Z,13.73
2018-01-03T13:59:53.545Z,12.87
2018-01-03T14:02:20.839Z,13.10
2018-01-03T14:04:48.093Z,12.60
2018-01-03T14:07:15.373Z,11.10
2018-01-03T14:09:42.624Z,15.97
2018-01-03T14:12:09.925Z,6.17
2018-01-03T14:14:37.168Z,9.97
2018-01-03T14:17:04.422Z,14.93
2018-01-03T14:19:31.707Z,10.70
2018-01-03T14:21:58.963Z,9.63
2018-01-03T14:24:26.257Z,9.93
2018-01-03T14:26:53.503Z,15.27
2018-01-03T14:29:20.798Z,21.70
2018-01-03T14:31:48.052Z,9.20
2018-01-03T14:34:15.379Z,16.57
2018-01-03T14:36:42.676Z,12.23
2018-01-03T14:39:09.954Z,23.17
2018-01-03T14:41:37.232Z,14.80
2018-01-03T14:44:04.515Z,14.43
2018-01-03T14:46:31.845Z,12.87
2018-01-03T14:48:59.124Z,15.93
2018-01-03T14:51:26.447Z,13.80
2018-01-03T14:53:53.719Z,19.50
2018-01-03T14:56:21.056Z,16.53
2018-01-03T14:58:48.348Z,10.63
2018-01-03T15:01:15.608Z,14.07
2018-01-03T15:03:42.868Z,13.07
2018-01-03T15:06:10.143Z,15.57
2018-01-03T15:08:37.623Z,13.37
2018-01-03T15:11:04.905Z,20.77
2018-01-03T15:13:32.159Z,17.13
2018-01-03T15:15:59.435Z,15.40
2018-01-03T15:18:26.687Z,18.57
2018-01-03T15:20:54.000Z,11.43
2018-01-03T15:23:21.304Z,19.37
2018-01-03T15:25:48.511Z,14.60
2018-01-03T15:28:15.791Z,12.00
2018-01-03T15:30:43.123Z,14.10
2018-01-03T15:33:10.413Z,14.30
2018-01-03T15:35:37.668Z,11.77
2018-01-03T15:38:04.983Z,11.47
2018-01-03T15:40:32.339Z,10.33
2018-01-03T15:42:59.687Z,9.93
2018-01-03T15:45:26.970Z,8.90
2018-01-03T15:47:54.215Z,7.43
2018-01-03T15:50:21.552Z,12.18
2018-01-03T15:52:48.837Z,13.10
2018-01-03T15:55:16.093Z,10.40
2018-01-03T15:57:43.411Z,9.50
2018-01-03T16:00:10.673Z,10.33
2018-01-03T16:02:37.923Z,12.53
2018-01-03T16:05:05.203Z,11.00
2018-01-03T16:07:32.468Z,14.30
2018-01-03T16:09:59.761Z,12.80
2018-01-03T16:12:27.021Z,11.23
2018-01-03T16:14:54.272Z,12.20
2018-01-03T16:17:21.552Z,9.47
2018-01-03T16:19:48.799Z,9.00
2018-01-03T16:22:16.094Z,13.63
2018-01-03T16:24:43.339Z,7.77
2018-01-03T16:27:11.064Z,10.60
2018-01-03T16:29:38.340Z,11.47
2018-01-03T16:32:05.592Z,8.37
2018-01-03T16:34:32.888Z,8.93
2018-01-03T16:37:00.163Z,12.40
2018-01-03T16:39:27.412Z,14.90
2018-01-03T16:41:54.691Z,14.60
2018-01-03T16:44:21.949Z,14.73
2018-01-03T16:46:49.211Z,15.77
2018-01-03T16:49:16.552Z,15.97
2018-01-03T16:51:49.544Z,14.97
2018-01-03T16:54:16.901Z,11.50
2018-01-03T16:56:44.164Z,12.30
2018-01-03T16:59:11.432Z,9.67
2018-01-03T17:01:38.767Z,9.50
2018-01-03T17:04:06.052Z,10.17
2018-01-03T17:06:33.300Z,15.80
2018-01-03T17:09:00.625Z,9.43
2018-01-03T17:11:27.902Z,8.53
2018-01-03T17:13:55.148Z,9.50
2018-01-03T17:16:22.432Z,15.20
2018-01-03T17:18:49.692Z,10.53
2018-01-03T17:21:16.980Z,12.23
2018-01-03T17:23:44.247Z,7.23
2018-01-03T17:26:11.604Z,11.37
2018-01-03T17:28:38.899Z,12.67
2018-01-03T17:31:06.148Z,13.07
2018-01-03T17:33:33.392Z,17.03
2018-01-03T17:36:00.676Z,13.47
2018-01-03T17:38:27.959Z,7.97
2018-01-03T17:40:55.224Z,10.40
2018-01-03T17:43:22.485Z,16.37
2018-01-03T17:45:49.756Z,8.53
2018-01-03T17:48:17.005Z,14.70
2018-01-03T17:50:44.341Z,12.50
2018-01-03T17:53:11.691Z,11.80
2018-01-03T17:55:38.949Z,12.53
2018-01-03T17:58:06.233Z,17.87
2018-01-03T18:00:33.489Z,20.10
2018-01-03T18:03:00.813Z,19.00
2018-01-03T18:05:28.087Z,16.90
2018-01-03T18:07:55.368Z,13.63
2018-01-03T18:10:22.647Z,16.33
2018-01-03T18:12:49.925Z,21.33
2018-01-03T18:15:17.204Z,20.47
2018-01-03T18:17:44.466Z,20.37
2018-01-03T18:20:11.759Z,11.27
2018-01-03T18:22:39.012Z,15.00
2018-01-03T18:25:06.272Z,17.23
2018-01-03T18:27:33.655Z,15.80
2018-01-03T18:30:00.905Z,9.93
2018-01-03T18:32:28.174Z,11.00
2018-01-03T18:34:55.453Z,12.53
2018-01-03T18:37:22.723Z,13.70
2018-01-03T18:39:49.985Z,11.50
2018-01-03T18:42:17.259Z,12.00
2018-01-03T18:44:44.537Z,16.33
2018-01-03T18:47:11.884Z,12.97
2018-01-03T18:49:39.164Z,14.23
2018-01-03T18:52:06.420Z,18.57
2018-01-03T18:54:33.681Z,13.50
2018-01-03T18:57:00.967Z,14.57
2018-01-03T18:59:28.223Z,15.93
2018-01-03T19:01:55.502Z,18.60
2018-01-03T19:04:22.764Z,17.03
2018-01-03T19:06:50.039Z,10.57
2018-01-03T19:09:17.296Z,10.77
2018-01-03T19:11:44.579Z,12.33
2018-01-03T19:14:11.856Z,19.67
2018-01-03T19:16:39.120Z,17.43
2018-01-03T19:19:06.403Z,16.03
2018-01-03T19:21:33.661Z,17.90
2018-01-03T19:24:00.958Z,13.00
2018-01-03T19:26:28.208Z,14.33
2018-01-03T19:28:55.468Z,10.20
2018-01-03T19:31:22.740Z,13.00
2018-01-03T19:33:49.995Z,12.23
2018-01-03T19:36:17.271Z,15.43
2018-01-03T19:38:44.528Z,14.60
2018-01-03T19:41:11.804Z,13.57
2018-01-03T19:43:39.056Z,21.50
2018-01-03T19:46:06.337Z,18.33
2018-01-03T19:48:33.593Z,19.63
2018-01-03T19:51:00.856Z,7.23
2018-01-03T19:53:28.139Z,17.13
2018-01-03T19:55:55.386Z,23.43
2018-01-03T19:58:22.672Z,17.13
2018-01-03T20:00:49.924Z,19.33
2018-01-03T20:03:17.208Z,23.57
2018-01-03T20:05:44.488Z,21.53
2018-01-03T20:08:11.748Z,19.80
2018-01-03T20:10:39.032Z,25.53
2018-01-03T20:13:06.287Z,17.53
2018-01-03T20:15:33.626Z,20.80
2018-01-03T20:18:03.460Z,21.20
2018-01-03T20:20:30.787Z,20.80
2018-01-03T20:22:58.045Z,18.00
2018-01-03T20:25:25.325Z,27.33
2018-01-03T20:27:52.659Z,26.03
2018-01-03T20:30:19.942Z,19.33
2018-01-03T20:32:47.260Z,24.07
2018-01-03T20:35:14.574Z,24.77
2018-01-03T20:37:41.825Z,31.37
2018-01-03T20:40:09.116Z,22.93
2018-01-03T20:45:10.192Z,33.47
2018-01-03T20:47:37.472Z,28.33
2018-01-03T20:50:04.737Z,31.03
2018-01-03T20:52:31.984Z,27.60
2018-01-03T20:54:59.272Z,21.20
2018-01-03T20:57:26.531Z,19.43
2018-01-03T20:59:53.815Z,21.17
2018-01-03T21:02:21.072Z,23.60
2018-01-03T21:04:48.352Z,21.37
2018-01-03T21:07:15.662Z,19.20
2018-01-03T21:09:42.944Z,22.97
2018-01-03T21:12:10.272Z,22.07
2018-01-03T21:14:37.567Z,27.97
2018-01-03T21:17:04.834Z,28.13
2018-01-03T21:19:32.139Z,18.80
2018-01-03T21:21:59.419Z,23.87
2018-01-03T21:24:26.752Z,14.57
2018-01-03T21:26:54.032Z,25.97
2018-01-03T21:29:21.286Z,27.23
2018-01-03T21:31:48.583Z,28.27
2018-01-03T21:34:15.868Z,18.03
2018-01-03T21:36:43.125Z,23.93
2018-01-03T21:39:10.378Z,21.33
2018-01-03T21:41:37.657Z,18.83
2018-01-03T21:44:04.903Z,17.90
2018-01-03T21:46:32.201Z,18.50
2018-01-03T21:48:59.725Z,22.00
2018-01-03T21:51:27.011Z,15.03
2018-01-03T21:53:54.292Z,16.67
2018-01-03T21:56:21.552Z,11.90
2018-01-03T21:58:48.941Z,22.83
2018-01-03T22:01:16.248Z,27.60
2018-01-03T22:03:43.861Z,19.73
2018-01-03T22:06:11.241Z,10.00
2018-01-03T22:08:38.515Z,16.60
2018-01-03T22:11:05.792Z,19.97
2018-01-03T22:13:33.047Z,15.07
2018-01-03T22:16:00.330Z,25.50
2018-01-03T22:18:27.588Z,11.20
2018-01-03T22:20:54.879Z,12.17
2018-01-03T22:23:22.261Z,16.80
2018-01-03T22:25:49.519Z,24.53
2018-01-03T22:28:16.864Z,14.77
2018-01-03T22:30:44.151Z,21.47
2018-01-03T22:33:11.486Z,14.73
2018-01-03T22:35:38.831Z,13.40
2018-01-03T22:38:06.120Z,19.07
2018-01-03T22:40:33.450Z,15.00
2018-01-03T22:43:00.739Z,12.63
2018-01-03T22:45:27.991Z,13.43
2018-01-03T22:47:55.244Z,21.47
2018-01-03T22:50:22.559Z,23.80
2018-01-03T22:52:49.836Z,11.70
2018-01-03T22:55:17.097Z,10.40
2018-01-03T22:57:44.424Z,20.50
2018-01-03T23:00:11.706Z,21.03
2018-01-03T23:02:38.962Z,23.33
2018-01-03T23:05:06.244Z,20.97
2018-01-03T23:07:33.532Z,23.17
2018-01-03T23:10:00.784Z,22.13
2018-01-03T23:12:28.076Z,21.23
2018-01-03T23:14:55.339Z,20.53
2018-01-03T23:17:22.588Z,22.67
2018-01-03T23:19:49.864Z,9.17
2018-01-03T23:22:17.168Z,20.70
2018-01-03T23:24:44.448Z,26.00
2018-01-03T23:27:11.712Z,21.30
2018-01-03T23:29:39.029Z,16.80
2018-01-03T23:32:06.284Z,17.80
2018-01-03T23:34:33.569Z,23.93
2018-01-03T23:37:00.821Z,25.23
2018-01-03T23:39:28.108Z,15.53
2018-01-03T23:41:55.395Z,21.23
2018-01-03T23:44:22.740Z,13.47
2018-01-03T23:46:50.052Z,20.17
2018-01-03T23:49:17.295Z,19.80
2018-01-03T23:51:44.558Z,19.30
2018-01-03T23:54:12.104Z,13.13
2018-01-03T23:56:39.412Z,15.83
2018-01-03T23:59:06.787Z,17.60
